Bedrock, Colorado
Current Conditions -  °F | °C
As of 2:35 AM on Saturday 25 Oct 2014 (Local Time) from KAIB Reporting Station
Haze Haze  
Wind Chill: 42°   Ceiling: Unl
Heat Index: 45°   Visibility: 3mi
Dew Point: 27°   Wind: 5mph
Humidity: 49%   Direction: 140°SE
Pressure: 30.37"   Gusts: NA
Location:  38.31°N, 108.89°W
Report Text: KAIB 250835Z AUTO 14004KT 3SM HZ CLR 07/M03 A3037 RMK AO2
Loading
Personal Weather Stations






























Interactive Weather Map
Tropical Storm Tracking
New forecast layout! Learn more

10-Day Weather Forecast

Advertisements
Track Severe Weather on mobile